Summerland, California
Current Conditions -  °F | °C
As of 10:53 AM on Thursday 23 Oct 2014 (Local Time) from KSBA Reporting Station
Clear Clear  
Wind Chill: 75°   Ceiling: Unl
Heat Index: 75°   Visibility: 10mi
Dew Point: 58°   Wind: 3mph
Humidity: 55%   Direction: 190°S
Pressure: 30"   Gusts: NA
Location:  34.42°N, 119.6°W
Report Text: KSBA 231753Z 19003KT 10SM CLR 24/14 A3000 RMK AO2 SLP158 T02390144 10244 20111 51009
Loading
Personal Weather Stations






























Interactive Weather Map
Tropical Storm Tracking
New forecast layout! Learn more

10-Day Weather Forecast

Advertisements
Track Severe Weather on mobile